createdAt,value
2023-03-05T00:02:21.827Z,7.65
2023-03-05T00:07:25.764Z,6.07
2023-03-05T00:12:30.776Z,6.35
2023-03-05T00:17:34.697Z,8.75
2023-03-05T00:22:38.776Z,7.15
2023-03-05T00:27:42.524Z,10.02
2023-03-05T00:32:46.524Z,7.00
2023-03-05T00:37:52.218Z,7.80
2023-03-05T00:42:56.120Z,8.00
2023-03-05T00:48:00.523Z,8.10
2023-03-05T00:53:04.511Z,7.80
2023-03-05T00:58:08.480Z,7.32
2023-03-05T01:03:12.422Z,8.85
2023-03-05T01:08:17.813Z,8.80
2023-03-05T01:13:21.799Z,8.18
2023-03-05T01:18:25.755Z,7.32
2023-03-05T01:23:29.594Z,6.32
2023-03-05T01:28:34.124Z,7.93
2023-03-05T01:33:39.283Z,7.07
2023-03-05T01:38:48.711Z,7.22
2023-03-05T01:43:53.644Z,6.95
2023-03-05T01:49:06.271Z,9.77
2023-03-05T01:54:12.860Z,8.15
2023-03-05T01:59:18.378Z,9.48
2023-03-05T02:04:29.924Z,9.55
2023-03-05T02:09:33.713Z,5.70
2023-03-05T02:14:38.425Z,8.55
2023-03-05T02:19:54.535Z,6.03
2023-03-05T02:24:58.495Z,5.30
2023-03-05T02:30:03.013Z,6.63
2023-03-05T02:35:08.047Z,4.63
2023-03-05T02:40:13.532Z,7.60
2023-03-05T02:45:18.727Z,8.65
2023-03-05T02:50:23.623Z,6.25
2023-03-05T02:55:27.482Z,8.10
2023-03-05T03:00:31.770Z,6.40
2023-03-05T03:05:37.496Z,7.32
2023-03-05T03:10:42.071Z,4.80
2023-03-05T03:15:47.089Z,6.72
2023-03-05T03:20:50.858Z,6.90
2023-03-05T03:25:54.785Z,5.22
2023-03-05T03:30:58.717Z,6.68
2023-03-05T03:36:04.283Z,6.43
2023-03-05T03:41:09.682Z,7.68
2023-03-05T03:46:13.572Z,5.70
2023-03-05T03:51:17.679Z,5.40
2023-03-05T03:56:21.534Z,5.93
2023-03-05T04:01:25.728Z,7.10
2023-03-05T04:06:29.695Z,5.47
2023-03-05T04:11:33.632Z,6.57
2023-03-05T04:16:37.610Z,5.55
2023-03-05T04:21:42.056Z,4.82
2023-03-05T04:26:46.271Z,6.15
2023-03-05T04:31:50.157Z,6.47
2023-03-05T04:36:54.044Z,7.03
2023-03-05T04:41:57.959Z,7.90
2023-03-05T04:47:01.699Z,6.30
2023-03-05T04:52:05.657Z,4.90
2023-03-05T04:57:09.458Z,6.10
2023-03-05T05:02:13.520Z,6.45
2023-03-05T05:07:17.633Z,6.50
2023-03-05T05:12:21.446Z,5.72
2023-03-05T05:17:25.755Z,6.22
2023-03-05T05:22:30.309Z,7.47
2023-03-05T05:27:34.453Z,5.47
2023-03-05T05:32:38.459Z,6.10
2023-03-05T05:37:42.448Z,5.47
2023-03-05T05:42:46.439Z,5.05
2023-03-05T05:48:27.553Z,4.65
2023-03-05T05:53:31.380Z,3.70
2023-03-05T05:58:35.632Z,4.47
2023-03-05T06:03:39.566Z,5.45
2023-03-05T06:08:44.250Z,7.25
2023-03-05T06:13:50.032Z,4.95
2023-03-05T06:18:54.439Z,7.95
2023-03-05T06:23:59.588Z,5.22
2023-03-05T06:29:03.716Z,4.57
2023-03-05T06:34:07.706Z,5.75
2023-03-05T06:39:11.575Z,5.97
2023-03-05T06:44:15.479Z,7.38
2023-03-05T06:49:20.422Z,8.20
2023-03-05T06:54:24.337Z,7.07
2023-03-05T06:59:28.225Z,5.18
2023-03-05T07:04:32.000Z,4.35
2023-03-05T07:09:36.313Z,4.78
2023-03-05T07:14:40.248Z,6.47
2023-03-05T07:19:44.829Z,3.33
2023-03-05T07:24:49.085Z,4.88
2023-03-05T07:29:52.925Z,4.75
2023-03-05T07:34:56.893Z,3.40
2023-03-05T07:40:00.663Z,4.30
2023-03-05T07:45:05.070Z,6.63
2023-03-05T07:50:09.956Z,4.60
2023-03-05T07:55:13.857Z,4.65
2023-03-05T08:00:18.476Z,6.03
2023-03-05T08:05:22.433Z,4.22
2023-03-05T08:10:26.730Z,5.50
2023-03-05T08:15:32.247Z,4.75
2023-03-05T08:20:37.405Z,4.70
2023-03-05T08:25:41.172Z,5.50
2023-03-05T08:30:45.239Z,4.80
2023-03-05T08:35:49.120Z,3.70
2023-03-05T08:40:52.996Z,4.40
2023-03-05T08:45:56.895Z,3.75
2023-03-05T08:51:08.117Z,5.63
2023-03-05T08:56:12.904Z,6.72
2023-03-05T09:01:16.888Z,4.20
2023-03-05T09:06:20.787Z,3.55
2023-03-05T09:11:24.970Z,5.55
2023-03-05T09:16:28.940Z,5.15
2023-03-05T09:21:32.774Z,4.65
2023-03-05T09:26:36.778Z,7.32
2023-03-05T09:31:41.165Z,5.70
2023-03-05T09:36:45.134Z,5.18
2023-03-05T09:42:09.881Z,4.93
2023-03-05T09:47:22.956Z,6.65
2023-03-05T09:52:54.622Z,6.35
2023-03-05T09:58:08.440Z,6.63
2023-03-05T10:03:44.615Z,6.10
2023-03-05T10:09:03.287Z,6.63
2023-03-05T10:14:14.699Z,5.88
2023-03-05T10:19:47.413Z,8.20
2023-03-05T10:25:09.398Z,8.13
2023-03-05T10:30:33.904Z,5.18
2023-03-05T10:36:01.408Z,7.43
2023-03-05T10:41:34.073Z,7.35
2023-03-05T10:46:40.608Z,6.00
2023-03-05T10:52:10.454Z,9.35
2023-03-05T10:57:20.215Z,6.55
2023-03-05T11:02:25.164Z,7.20
2023-03-05T11:07:39.144Z,7.50
2023-03-05T11:12:43.548Z,6.38
2023-03-05T11:17:49.706Z,6.05
2023-03-05T11:23:13.368Z,6.22
2023-03-05T11:28:32.201Z,4.53
2023-03-05T11:33:38.708Z,5.13
2023-03-05T11:39:08.664Z,6.25
2023-03-05T11:44:17.372Z,4.35
2023-03-05T11:49:25.023Z,4.90
2023-03-05T11:54:43.418Z,5.13
2023-03-05T11:59:47.468Z,2.47
2023-03-05T12:04:52.692Z,5.38
2023-03-05T12:09:56.760Z,4.45
2023-03-05T12:22:17.194Z,6.15
2023-03-05T12:27:47.481Z,3.80
2023-03-05T12:32:54.810Z,4.45
2023-03-05T12:38:02.954Z,4.15
2023-03-05T12:43:34.016Z,3.05
2023-03-05T12:48:44.255Z,2.72
2023-03-05T12:53:52.555Z,5.03
2023-03-05T12:59:01.377Z,6.78
2023-03-05T13:04:11.967Z,7.57
2023-03-05T13:09:37.103Z,4.43
2023-03-05T13:14:45.894Z,3.50
2023-03-05T13:19:49.970Z,7.43
2023-03-05T13:25:15.171Z,5.43
2023-03-05T13:30:28.729Z,7.60
2023-03-05T13:35:34.262Z,11.45
2023-03-05T13:40:38.991Z,3.67
2023-03-05T13:45:45.082Z,4.43
2023-03-05T13:50:57.478Z,6.00
2023-03-05T13:56:05.899Z,4.53
2023-03-05T14:01:33.221Z,4.50
2023-03-05T14:06:47.242Z,3.75
2023-03-05T14:12:31.277Z,4.65
2023-03-05T14:17:42.536Z,5.38
2023-03-05T14:22:49.268Z,6.95
2023-03-05T14:27:53.464Z,5.78
2023-03-05T14:33:00.113Z,6.03
2023-03-05T14:38:04.188Z,6.07
2023-03-05T14:43:12.570Z,4.88
2023-03-05T14:48:19.761Z,6.97
2023-03-05T14:53:27.595Z,6.55
2023-03-05T14:58:34.340Z,6.10
2023-03-05T15:03:39.448Z,7.85
2023-03-05T15:08:43.230Z,7.72
2023-03-05T15:13:47.199Z,8.07
2023-03-05T15:18:51.622Z,7.38
2023-03-05T15:23:55.556Z,10.32
2023-03-05T15:28:59.641Z,7.28
2023-03-05T15:34:03.455Z,8.25
2023-03-05T15:39:08.147Z,8.88
2023-03-05T15:44:12.049Z,6.85
2023-03-05T15:49:16.750Z,9.60
2023-03-05T15:54:20.798Z,5.72
2023-03-05T15:59:24.646Z,5.82
2023-03-05T16:04:30.229Z,4.72
2023-03-05T16:09:40.116Z,7.20
2023-03-05T16:14:44.032Z,9.00
2023-03-05T16:19:53.206Z,5.70
2023-03-05T16:24:58.448Z,10.13
2023-03-05T16:30:03.061Z,8.15
2023-03-05T16:35:07.780Z,10.68
2023-03-05T16:40:12.926Z,7.15
2023-03-05T16:45:16.990Z,6.35
2023-03-05T16:50:20.832Z,8.48
2023-03-05T16:55:24.812Z,6.53
2023-03-05T17:00:28.746Z,9.75
2023-03-05T17:05:32.527Z,8.38
2023-03-05T17:10:36.442Z,9.80
2023-03-05T17:15:40.323Z,10.68
2023-03-05T17:20:44.188Z,7.75
2023-03-05T17:25:48.410Z,7.85
2023-03-05T17:30:52.468Z,9.70
2023-03-05T17:35:56.878Z,7.90
2023-03-05T17:41:00.850Z,11.32
2023-03-05T17:46:04.755Z,8.55
2023-03-05T17:51:12.532Z,7.75
2023-03-05T17:56:17.827Z,7.57
2023-03-05T18:01:31.176Z,9.65
2023-03-05T18:06:35.041Z,5.97
2023-03-05T18:11:39.221Z,7.05
2023-03-05T18:16:43.053Z,7.95
2023-03-05T18:21:47.140Z,10.27
2023-03-05T18:26:51.373Z,9.30
2023-03-05T18:31:55.443Z,5.70
2023-03-05T18:37:01.370Z,7.13
2023-03-05T18:42:05.228Z,9.43
2023-03-05T18:47:09.343Z,10.48
2023-03-05T18:52:13.918Z,20.13
2023-03-05T18:57:17.746Z,29.40
2023-03-05T19:02:21.444Z,16.50
2023-03-05T19:07:25.548Z,19.30
2023-03-05T19:12:35.788Z,15.15
2023-03-05T19:17:39.993Z,14.55
2023-03-05T19:22:44.163Z,12.55
2023-03-05T19:27:48.270Z,14.23
2023-03-05T19:32:52.272Z,14.18
2023-03-05T19:37:56.226Z,13.32
2023-03-05T19:43:00.188Z,15.75
2023-03-05T19:48:04.133Z,18.35
2023-03-05T19:53:08.065Z,12.32
2023-03-05T19:58:12.001Z,12.57
2023-03-05T20:03:15.939Z,9.77
2023-03-05T20:08:20.008Z,13.48
2023-03-05T20:13:26.835Z,10.85
2023-03-05T20:18:31.605Z,8.05
2023-03-05T20:23:35.391Z,13.57
2023-03-05T20:28:39.408Z,11.00
2023-03-05T20:33:43.284Z,10.60
2023-03-05T20:38:47.340Z,8.05
2023-03-05T20:43:52.560Z,8.57
2023-03-05T20:48:59.845Z,11.65
2023-03-05T20:54:08.306Z,9.02
2023-03-05T20:59:12.341Z,10.02
2023-03-05T21:04:17.119Z,13.30
2023-03-05T21:09:21.079Z,9.63
2023-03-05T21:14:24.764Z,10.07
2023-03-05T21:19:28.738Z,10.25
2023-03-05T21:24:43.564Z,12.32
2023-03-05T21:29:47.424Z,12.27
2023-03-05T21:34:51.617Z,10.90
2023-03-05T21:39:55.577Z,14.35
2023-03-05T21:44:59.556Z,14.40
2023-03-05T21:50:03.349Z,14.32
2023-03-05T21:55:07.545Z,12.18
2023-03-05T22:00:13.897Z,14.60
2023-03-05T22:05:18.074Z,12.07
2023-03-05T22:10:21.984Z,13.75
2023-03-05T22:15:25.940Z,13.65
2023-03-05T22:20:30.009Z,13.18
2023-03-05T22:25:34.067Z,13.73
2023-03-05T22:30:43.489Z,14.00
2023-03-05T22:35:48.255Z,12.88
2023-03-05T22:40:53.036Z,13.77
2023-03-05T22:45:56.974Z,13.57
2023-03-05T22:51:00.917Z,13.15
2023-03-05T22:56:31.070Z,15.65
2023-03-05T23:01:34.870Z,16.55
2023-03-05T23:06:38.694Z,13.55
2023-03-05T23:11:42.502Z,12.75
2023-03-05T23:16:46.367Z,14.93
2023-03-05T23:21:50.127Z,16.35
2023-03-05T23:26:53.900Z,14.27
2023-03-05T23:31:57.862Z,12.73
2023-03-05T23:37:01.722Z,18.08
2023-03-05T23:42:05.686Z,14.43
2023-03-05T23:47:09.509Z,14.48
2023-03-05T23:52:13.203Z,15.35
2023-03-05T23:57:17.036Z,19.08
